Time;durP1;ratioP1;P1;durP2;ratioP2;P2;SDS_P1;SDS_P2;PMS_P1;PMS_P2;Temp;Humidity;BMP_temperature;BMP_pressure;BME280_temperature;BME280_humidity;BME280_pressure;Samples;Min_cycle;Max_cycle;Signal;HPM_P1;HPM_P2
2021/11/01 00:01:56;;;;;;;3.50;2.67;;;14.20;88.40;;;;;;5016633;28;20323;-87
2021/11/01 00:04:22;;;;;;;3.20;2.73;;;14.20;88.60;;;;;;5021811;28;20295;-86
2021/11/01 00:06:48;;;;;;;3.03;2.63;;;14.20;88.50;;;;;;5022047;28;20207;-86
2021/11/01 00:09:14;;;;;;;3.57;3.20;;;14.30;88.30;;;;;;5021979;28;20187;-87
2021/11/01 00:11:40;;;;;;;6.27;2.70;;;14.20;88.40;;;;;;5021992;28;20180;-87
2021/11/01 00:14:06;;;;;;;3.57;2.67;;;14.30;88.40;;;;;;5021809;28;20200;-87
2021/11/01 00:16:32;;;;;;;9.20;3.33;;;14.20;87.90;;;;;;5021858;28;20176;-86
2021/11/01 00:18:59;;;;;;;3.70;2.00;;;14.10;88.00;;;;;;5021989;28;20668;-87
2021/11/01 00:21:25;;;;;;;2.60;1.90;;;14.00;86.50;;;;;;5021756;28;20211;-86
2021/11/01 00:23:52;;;;;;;3.77;1.87;;;13.90;85.90;;;;;;5039503;28;20195;-87
2021/11/01 00:26:18;;;;;;;3.77;1.73;;;13.80;86.10;;;;;;5021695;28;20176;-87
2021/11/01 00:28:44;;;;;;;4.90;1.50;;;13.70;85.60;;;;;;5021746;28;20180;-86
2021/11/01 00:31:11;;;;;;;6.20;1.53;;;13.60;85.10;;;;;;5021803;28;20635;-86
2021/11/01 00:33:37;;;;;;;4.77;1.50;;;13.50;85.20;;;;;;5039576;28;20177;-87
2021/11/01 00:36:04;;;;;;;7.10;1.60;;;13.40;85.80;;;;;;5021783;28;20183;-88
2021/11/01 00:38:30;;;;;;;8.30;2.63;;;13.40;86.30;;;;;;5021857;28;20226;-88
2021/11/01 00:40:56;;;;;;;4.53;1.90;;;13.40;86.90;;;;;;5021937;28;20208;-88
2021/11/01 00:43:22;;;;;;;4.93;1.60;;;13.30;86.90;;;;;;5021991;28;20168;-88
2021/11/01 00:45:47;;;;;;;9.20;2.13;;;13.30;86.20;;;;;;5021752;28;20662;-87
2021/11/01 00:48:13;;;;;;;4.20;2.23;;;13.20;85.90;;;;;;5039552;28;20610;-88
2021/11/01 00:50:39;;;;;;;11.47;1.80;;;13.20;85.50;;;;;;5039477;28;20177;-87
2021/11/01 00:53:05;;;;;;;6.63;2.07;;;13.10;85.20;;;;;;5039623;28;20183;-88
2021/11/01 00:55:49;;;;;;;15.23;2.13;;;13.10;85.00;;;;;;5021578;28;20201;-88
2021/11/01 00:58:17;;;;;;;7.97;2.20;;;13.00;85.40;;;;;;5039733;28;20149;-88
2021/11/01 01:00:43;;;;;;;8.53;2.37;;;12.90;85.80;;;;;;5021683;28;20254;-88
2021/11/01 01:03:13;;;;;;;7.40;1.90;;;12.80;86.10;;;;;;5021752;28;20181;-87
2021/11/01 01:05:42;;;;;;;11.40;2.30;;;12.80;86.40;;;;;;5021667;28;20582;-88
2021/11/01 01:08:08;;;;;;;12.03;2.73;;;12.90;86.10;;;;;;5039297;28;20199;-87
2021/11/01 01:10:34;;;;;;;9.47;2.00;;;12.80;85.40;;;;;;5021456;28;20250;-87
2021/11/01 01:12:59;;;;;;;13.13;2.47;;;12.90;84.60;;;;;;5021529;28;20557;-87
2021/11/01 01:15:27;;;;;;;13.73;2.17;;;12.90;84.30;;;;;;5017803;28;20547;-88
2021/11/01 01:18:00;;;;;;;13.70;2.50;;;12.80;85.20;;;;;;5018304;28;20616;-87
2021/11/01 01:20:25;;;;;;;16.37;3.87;;;12.70;85.40;;;;;;5019504;28;20609;-86
2021/11/01 01:22:51;;;;;;;15.47;4.07;;;12.70;85.60;;;;;;5018695;28;20169;-87
2021/11/01 01:27:46;;;;;;;22.87;5.13;;;12.50;86.70;;;;;;5018383;28;20169;-86
2021/11/01 01:30:13;;;;;;;22.77;3.83;;;12.50;86.80;;;;;;5017846;28;20544;-86
2021/11/01 01:32:39;;;;;;;10.40;2.00;;;12.50;86.10;;;;;;5035680;28;20172;-86
2021/11/01 01:35:05;;;;;;;12.53;2.77;;;12.50;85.90;;;;;;5017768;28;20204;-87
2021/11/01 01:37:31;;;;;;;14.30;2.67;;;12.40;86.20;;;;;;5018894;28;20207;-87
2021/11/01 01:39:56;;;;;;;16.40;3.03;;;12.40;86.20;;;;;;5035477;28;20286;-87
2021/11/01 01:42:22;;;;;;;28.27;3.27;;;12.30;86.60;;;;;;5035732;28;20169;-87
2021/11/01 01:44:48;;;;;;;17.97;3.13;;;12.20;86.80;;;;;;5017716;28;20207;-86
2021/11/01 01:47:14;;;;;;;15.43;2.63;;;12.20;86.90;;;;;;5035490;28;20180;-86
2021/11/01 01:49:39;;;;;;;13.83;3.10;;;12.30;86.80;;;;;;5017667;28;20212;-86
2021/11/01 01:52:05;;;;;;;14.40;2.67;;;12.30;86.40;;;;;;5035390;28;20183;-87
2021/11/01 01:54:31;;;;;;;10.97;2.67;;;12.30;86.70;;;;;;5035355;28;20188;-86
2021/11/01 01:56:57;;;;;;;10.87;2.53;;;12.30;86.80;;;;;;5035186;28;20169;-86
2021/11/01 01:59:23;;;;;;;11.77;2.03;;;12.30;86.40;;;;;;5035352;28;20703;-87
2021/11/01 02:01:50;;;;;;;13.10;2.73;;;12.30;86.20;;;;;;5017413;28;20227;-87
2021/11/01 02:04:20;;;;;;;17.03;3.00;;;12.20;86.50;;;;;;5034862;28;20209;-87
2021/11/01 02:06:49;;;;;;;14.90;2.90;;;12.20;86.90;;;;;;5017375;28;20258;-86
2021/11/01 02:09:27;;;;;;;11.80;2.37;;;12.10;86.90;;;;;;5017543;28;20263;-89
2021/11/01 02:12:29;;;;;;;13.77;2.60;;;12.00;86.90;;;;;;5019072;28;20165;-87
2021/11/01 02:14:59;;;;;;;12.33;2.60;;;12.00;87.20;;;;;;4987530;28;20235;-87
2021/11/01 02:17:28;;;;;;;20.90;3.07;;;11.90;87.40;;;;;;5017131;28;20165;-86
2021/11/01 02:19:57;;;;;;;17.77;2.87;;;11.80;87.40;;;;;;5034646;28;20207;-86
2021/11/01 02:22:29;;;;;;;20.33;3.47;;;11.80;87.40;;;;;;5034655;28;20165;-86
2021/11/01 02:25:19;;;;;;;13.80;2.50;;;11.70;87.40;;;;;;5016562;28;20189;-86
2021/11/01 02:27:45;;;;;;;12.17;2.97;;;11.70;87.50;;;;;;5016663;28;20165;-86
2021/11/01 02:30:14;;;;;;;12.00;2.47;;;11.70;87.50;;;;;;5034536;28;20337;-86
2021/11/01 02:32:42;;;;;;;19.13;2.43;;;11.70;87.60;;;;;;5016814;28;20176;-86
2021/11/01 02:35:09;;;;;;;12.63;3.10;;;11.60;87.80;;;;;;5016718;28;20200;-87
2021/11/01 02:37:40;;;;;;;16.00;3.23;;;11.50;88.10;;;;;;5016818;28;20184;-86
2021/11/01 02:40:07;;;;;;;19.13;3.23;;;11.60;88.00;;;;;;5016564;28;20247;-87
2021/11/01 02:42:34;;;;;;;13.43;2.63;;;11.50;88.20;;;;;;5034321;28;20164;-87
2021/11/01 02:45:07;;;;;;;14.33;2.90;;;11.40;88.50;;;;;;5034361;28;20235;-86
2021/11/01 02:47:34;;;;;;;13.83;2.73;;;11.30;88.80;;;;;;5016585;28;20161;-86
2021/11/01 02:50:01;;;;;;;14.37;3.07;;;11.20;89.10;;;;;;5034384;28;20176;-86
2021/11/01 02:52:28;;;;;;;23.00;3.03;;;11.20;89.30;;;;;;5016531;28;20226;-87
2021/11/01 02:54:55;;;;;;;18.40;3.87;;;11.30;89.20;;;;;;5016413;28;20196;-86
2021/11/01 02:57:21;;;;;;;14.37;2.70;;;11.20;89.40;;;;;;5034147;28;20168;-86
2021/11/01 02:59:48;;;;;;;18.00;3.07;;;11.20;89.50;;;;;;5016381;28;20675;-86
2021/11/01 03:02:14;;;;;;;20.23;3.20;;;11.20;89.80;;;;;;5034355;28;20180;-86
2021/11/01 03:04:39;;;;;;;13.37;2.77;;;11.30;89.60;;;;;;5015939;28;20215;-87
2021/11/01 03:07:06;;;;;;;16.00;3.30;;;11.20;89.80;;;;;;5034397;28;20173;-87
2021/11/01 03:09:35;;;;;;;23.50;3.07;;;11.20;89.80;;;;;;5036280;28;20180;-87
2021/11/01 03:12:05;;;;;;;23.13;3.57;;;11.20;89.80;;;;;;5017120;28;20268;-87
2021/11/01 03:14:38;;;;;;;15.27;2.90;;;11.20;90.00;;;;;;5016063;28;20677;-86
2021/11/01 03:17:05;;;;;;;13.17;3.20;;;11.20;90.00;;;;;;5016596;28;20207;-86
2021/11/01 03:19:32;;;;;;;19.40;3.50;;;11.20;90.10;;;;;;5033744;28;20707;-86
2021/11/01 03:22:04;;;;;;;23.30;4.47;;;11.10;90.00;;;;;;5016110;28;20234;-86
2021/11/01 03:24:33;;;;;;;28.63;4.37;;;11.10;90.00;;;;;;5015794;28;20719;-86
2021/11/01 03:26:59;;;;;;;16.30;3.17;;;11.10;90.00;;;;;;5033570;28;20613;-86
2021/11/01 03:29:27;;;;;;;19.60;3.73;;;11.10;90.20;;;;;;5015890;28;20184;-86
2021/11/01 03:31:53;;;;;;;21.83;3.83;;;11.00;90.10;;;;;;5015874;28;20296;-86
2021/11/01 03:34:22;;;;;;;15.97;3.70;;;11.00;90.30;;;;;;5015759;28;20737;-86
2021/11/01 03:36:49;;;;;;;21.43;4.20;;;10.90;90.50;;;;;;5015380;28;20223;-86
2021/11/01 03:39:15;;;;;;;21.33;3.73;;;10.80;90.60;;;;;;5015547;28;20173;-86
2021/11/01 03:41:43;;;;;;;18.20;3.70;;;10.80;90.60;;;;;;5015588;28;20204;-86
2021/11/01 03:44:16;;;;;;;19.73;3.50;;;10.80;90.70;;;;;;5015606;28;20287;-86
2021/11/01 03:46:45;;;;;;;13.17;2.70;;;10.80;90.70;;;;;;5033866;28;20622;-88
2021/11/01 03:49:13;;;;;;;21.50;3.80;;;10.80;90.40;;;;;;5015536;28;20180;-86
2021/11/01 03:51:45;;;;;;;14.20;2.93;;;10.80;90.40;;;;;;5015459;28;20177;-86
2021/11/01 03:54:17;;;;;;;17.37;3.37;;;10.80;90.50;;;;;;5033434;28;20554;-86
2021/11/01 03:56:44;;;;;;;16.90;2.77;;;10.80;90.60;;;;;;5015391;28;20183;-86
2021/11/01 03:59:11;;;;;;;18.27;3.67;;;10.80;90.40;;;;;;5033014;28;20219;-87
2021/11/01 04:01:42;;;;;;;21.17;3.27;;;10.80;90.50;;;;;;5015433;28;20222;-87
2021/11/01 04:06:39;;;;;;;18.07;3.47;;;10.80;90.50;;;;;;5032073;28;20228;-88
2021/11/01 04:09:05;;;;;;;21.90;3.73;;;10.80;90.40;;;;;;5033474;28;20169;-88
2021/11/01 04:11:32;;;;;;;18.80;3.63;;;10.80;90.30;;;;;;5015452;28;20199;-89
2021/11/01 04:14:02;;;;;;;20.73;4.20;;;10.80;90.50;;;;;;5033341;28;20173;-88
2021/11/01 04:16:39;;;;;;;11.50;3.23;;;10.80;90.40;;;;;;5015378;28;20561;-88
2021/11/01 04:21:41;;;;;;;18.83;4.30;;;10.80;90.60;;;;;;5033229;28;20722;-88
2021/11/01 04:24:07;;;;;;;15.50;3.33;;;10.80;90.40;;;;;;5032872;28;20161;-88
2021/11/01 04:26:33;;;;;;;11.93;3.77;;;10.80;90.40;;;;;;5032981;28;20184;-88
2021/11/01 04:29:03;;;;;;;12.50;3.13;;;10.80;90.50;;;;;;5015369;28;20289;-88
2021/11/01 04:31:32;;;;;;;20.13;4.67;;;10.70;90.50;;;;;;5015250;28;20177;-88
2021/11/01 04:34:02;;;;;;;20.23;4.67;;;10.80;90.40;;;;;;5015230;28;20173;-88
2021/11/01 04:36:29;;;;;;;27.97;4.53;;;10.80;90.30;;;;;;5033067;28;20645;-88
2021/11/01 04:39:22;;;;;;;19.23;3.60;;;10.80;90.30;;;;;;5015184;28;20173;-88
2021/11/01 04:42:29;;;;;;;24.43;4.23;;;10.80;90.30;;;;;;5032017;28;20205;-88
2021/11/01 04:55:16;;;;;;;13.20;3.23;;;10.70;90.00;;;;;;5036835;28;20254;-88
2021/11/01 04:57:42;;;;;;;12.63;3.37;;;10.70;90.20;;;;;;5036466;28;20165;-88
2021/11/01 05:00:09;;;;;;;15.20;3.30;;;10.70;90.10;;;;;;5018687;28;20257;-88
2021/11/01 05:02:37;;;;;;;17.10;4.27;;;10.70;90.10;;;;;;5018622;28;20207;-89
2021/11/01 05:05:03;;;;;;;25.90;4.10;;;10.70;90.10;;;;;;5018339;28;20251;-88
2021/11/01 05:07:29;;;;;;;17.30;2.80;;;10.70;89.90;;;;;;5018495;28;20222;-88
2021/11/01 05:10:13;;;;;;;15.83;3.17;;;10.70;89.80;;;;;;5036191;28;20169;-88
2021/11/01 05:12:43;;;;;;;17.60;3.77;;;10.70;89.90;;;;;;5036123;28;20149;-88
2021/11/01 05:15:13;;;;;;;12.90;3.17;;;10.70;89.90;;;;;;5035940;28;20191;-88
2021/11/01 05:20:21;;;;;;;22.13;4.00;;;10.80;89.70;;;;;;5036160;28;20199;-88
2021/11/01 05:30:14;;;;;;;18.30;4.00;;;10.70;89.80;;;;;;5036036;28;20223;-89
2021/11/01 05:32:42;;;;;;;16.37;4.07;;;10.60;89.90;;;;;;5018030;28;20192;-88
2021/11/01 05:35:08;;;;;;;16.47;4.43;;;10.60;90.00;;;;;;5035645;28;20212;-88
2021/11/01 05:37:34;;;;;;;26.30;7.20;;;10.70;89.90;;;;;;5035942;28;20207;-88
2021/11/01 05:40:00;;;;;;;13.23;3.77;;;10.60;89.80;;;;;;5017843;28;20274;-88
2021/11/01 05:42:26;;;;;;;21.23;3.30;;;10.70;89.70;;;;;;5035606;28;20169;-88
2021/11/01 05:44:52;;;;;;;17.87;3.37;;;10.70;89.80;;;;;;5035521;28;20192;-88
2021/11/01 05:47:18;;;;;;;23.27;3.73;;;10.60;89.80;;;;;;5017829;28;20176;-88
2021/11/01 05:49:44;;;;;;;22.33;3.73;;;10.50;90.00;;;;;;5017864;28;20268;-88
2021/11/01 05:52:20;;;;;;;20.93;3.97;;;10.60;90.10;;;;;;5035408;28;20196;-88
2021/11/01 05:54:46;;;;;;;25.33;4.43;;;10.60;89.90;;;;;;5035719;28;20272;-88
2021/11/01 05:57:25;;;;;;;12.13;3.53;;;10.50;90.00;;;;;;5017749;28;20184;-88
2021/11/01 06:03:03;;;;;;;14.03;3.17;;;10.50;89.90;;;;;;5035275;28;20156;-88
2021/11/01 06:05:25;;;;;;;17.53;3.30;;;10.60;89.90;;;;;;5030001;28;20593;-88
2021/11/01 06:15:50;;;;;;;25.07;4.80;;;10.50;89.80;;;;;;5034925;28;20276;-88
2021/11/01 06:18:16;;;;;;;16.40;4.90;;;10.50;89.50;;;;;;5034976;28;20607;-88
2021/11/01 06:20:42;;;;;;;20.70;5.43;;;10.50;89.60;;;;;;5017516;28;20283;-88
2021/11/01 06:23:08;;;;;;;18.13;4.00;;;10.50;89.70;;;;;;5017108;28;20192;-88
2021/11/01 06:25:34;;;;;;;22.73;5.07;;;10.60;89.50;;;;;;5016960;28;20197;-88
2021/11/01 06:28:00;;;;;;;25.37;5.90;;;10.50;89.50;;;;;;5034701;28;20172;-88
2021/11/01 06:30:36;;;;;;;14.67;3.80;;;10.50;89.10;;;;;;5034640;28;20551;-89
2021/11/01 06:33:27;;;;;;;14.07;3.77;;;10.60;89.00;;;;;;5016945;28;20589;-88
2021/11/01 06:39:17;;;;;;;17.77;4.33;;;10.50;89.10;;;;;;5034562;28;20256;-88
2021/11/01 06:57:53;;;;;;;11.43;3.50;;;10.60;87.70;;;;;;4988019;28;20181;-87
2021/11/01 07:14:25;;;;;;;18.23;4.23;;;10.70;86.70;;;;;;5034280;28;20215;-86
2021/11/01 07:19:28;;;;;;;17.07;4.13;;;10.60;87.00;;;;;;5034037;28;20267;-86
2021/11/01 09:18:43;;;;;;;6.43;2.40;;;11.20;84.80;;;;;;5036426;28;20214;-84
2021/11/01 09:24:47;;;;;;;9.97;2.13;;;11.50;83.10;;;;;;5036119;28;20215;-85
2021/11/01 09:27:18;;;;;;;9.30;2.30;;;11.70;84.00;;;;;;5018090;28;20223;-85
2021/11/01 09:30:04;;;;;;;10.80;3.10;;;11.70;83.00;;;;;;5018055;28;20161;-85
2021/11/01 09:43:15;;;;;;;8.83;2.73;;;11.70;82.40;;;;;;5035883;28;20195;-85
2021/11/01 09:45:41;;;;;;;10.93;2.40;;;11.70;82.30;;;;;;5035419;28;20211;-85
2021/11/01 09:48:08;;;;;;;6.40;2.20;;;11.90;82.20;;;;;;5035492;28;20710;-85
2021/11/01 09:50:35;;;;;;;9.17;2.47;;;12.00;81.10;;;;;;5017747;28;20205;-85
2021/11/01 09:53:08;;;;;;;14.77;2.73;;;12.20;81.80;;;;;;5035629;28;20187;-85
2021/11/01 09:55:48;;;;;;;11.93;2.43;;;12.30;81.40;;;;;;5035312;28;20735;-85
2021/11/01 10:01:05;;;;;;;10.90;2.33;;;12.20;80.40;;;;;;5035501;28;20199;-84
2021/11/01 10:03:39;;;;;;;7.57;2.17;;;12.30;80.00;;;;;;5017395;28;20185;-85
2021/11/01 10:06:07;;;;;;;11.20;2.33;;;12.10;79.10;;;;;;5075191;22;20228;-88
2021/11/01 10:08:33;;;;;;;8.20;2.93;;;12.10;79.50;;;;;;5017614;28;20169;-87
2021/11/01 10:11:12;;;;;;;12.43;2.67;;;12.00;78.70;;;;;;5017932;28;20203;-88
2021/11/01 10:13:38;;;;;;;5.10;2.03;;;12.20;78.70;;;;;;5036117;28;20171;-88
2021/11/01 10:18:48;;;;;;;9.80;2.27;;;12.50;79.50;;;;;;5035628;28;20172;-89
2021/11/01 10:21:17;;;;;;;5.47;1.97;;;12.50;78.60;;;;;;5017582;28;20228;-89
2021/11/01 10:23:51;;;;;;;12.87;2.77;;;12.20;77.70;;;;;;5017561;28;20179;-89
2021/11/01 10:26:20;;;;;;;3.70;1.87;;;12.20;79.50;;;;;;5017356;28;20192;-89
2021/11/01 10:28:51;;;;;;;12.67;2.77;;;12.20;77.30;;;;;;5017686;28;20173;-89
2021/11/01 10:31:25;;;;;;;8.07;2.83;;;12.20;79.00;;;;;;5034895;28;20667;-90
2021/11/01 10:34:04;;;;;;;6.90;2.20;;;12.30;78.80;;;;;;5017775;28;20176;-89
2021/11/01 10:36:34;;;;;;;5.40;2.13;;;12.30;78.00;;;;;;5017477;28;20568;-90
2021/11/01 10:39:05;;;;;;;3.70;1.87;;;12.40;78.40;;;;;;5034801;28;20656;-89
2021/11/01 11:28:35;;;;;;;5.07;2.43;;;13.00;75.60;;;;;;5034335;28;20172;-89
2021/11/01 11:33:30;;;;;;;5.23;1.80;;;13.00;76.10;;;;;;5034768;28;20164;-85
2021/11/01 11:48:33;;;;;;;6.40;2.13;;;12.80;74.70;;;;;;4954082;29;20211;-85
2021/11/01 11:50:38;;;;;;;7.37;2.10;;;13.00;74.20;;;;;;5017929;28;20180;-85
2021/11/01 11:53:24;;;;;;;6.50;2.17;;;12.80;75.40;;;;;;5016066;28;20188;-85
2021/11/01 11:56:11;;;;;;;11.77;3.23;;;12.70;75.60;;;;;;5016468;28;20542;-85
2021/11/01 11:58:43;;;;;;;10.60;2.10;;;12.80;74.60;;;;;;5033743;28;20227;-85
2021/11/01 12:01:22;;;;;;;9.30;3.40;;;13.10;74.30;;;;;;5034028;28;20180;-85
2021/11/01 12:03:48;;;;;;;11.53;2.67;;;13.00;73.70;;;;;;5016956;28;20177;-87
2021/11/01 12:06:17;;;;;;;10.97;3.00;;;13.10;74.00;;;;;;5016850;28;20215;-86
2021/11/01 12:08:50;;;;;;;5.37;2.10;;;12.90;74.60;;;;;;5034484;28;20161;-87
2021/11/01 12:11:31;;;;;;;5.40;1.77;;;13.10;73.70;;;;;;5017324;28;20172;-86
2021/11/01 12:14:16;;;;;;;11.53;2.23;;;12.80;74.10;;;;;;5016038;28;20164;-87
2021/11/01 12:17:10;;;;;;;10.33;2.30;;;13.10;74.50;;;;;;5015885;28;20199;-86
2021/11/01 12:19:37;;;;;;;7.00;2.67;;;13.20;73.10;;;;;;5016659;28;20180;-87
2021/11/01 12:22:07;;;;;;;8.17;2.30;;;13.00;74.60;;;;;;5033930;28;20204;-86
2021/11/01 12:24:33;;;;;;;9.37;2.83;;;12.80;74.80;;;;;;5016504;28;20165;-85
2021/11/01 12:27:02;;;;;;;10.23;3.03;;;12.80;75.30;;;;;;5034681;28;20157;-86
2021/11/01 12:29:28;;;;;;;8.00;2.63;;;12.70;76.00;;;;;;5017260;28;20180;-85
2021/11/01 12:32:02;;;;;;;7.43;2.60;;;12.70;75.30;;;;;;5016971;28;20244;-86
2021/11/01 12:34:28;;;;;;;5.53;2.30;;;12.80;74.60;;;;;;5034579;28;20161;-85
2021/11/01 12:37:09;;;;;;;9.37;2.93;;;13.00;73.90;;;;;;5016546;28;20578;-86
2021/11/01 12:39:39;;;;;;;7.60;2.50;;;12.90;75.40;;;;;;5016973;28;20582;-88
2021/11/01 12:58:59;;;;;;;6.27;2.93;;;12.90;74.60;;;;;;5033520;28;20172;-87
2021/11/01 13:01:29;;;;;;;8.40;2.23;;;12.80;75.70;;;;;;5032571;28;20203;-87
2021/11/01 13:04:29;;;;;;;6.03;2.10;;;13.10;72.50;;;;;;5015927;28;20196;-87
2021/11/01 13:09:26;;;;;;;5.30;2.33;;;13.40;72.80;;;;;;5034419;28;20168;-88
2021/11/01 13:12:02;;;;;;;6.07;2.27;;;13.20;71.60;;;;;;5021117;28;20184;-87
2021/11/01 13:17:50;;;;;;;9.93;3.03;;;13.20;72.80;;;;;;5019869;28;20184;-87
2021/11/01 13:20:19;;;;;;;7.50;2.27;;;12.90;71.60;;;;;;5037101;28;20702;-87
2021/11/01 13:22:52;;;;;;;7.23;2.50;;;13.10;71.70;;;;;;5019477;28;20196;-85
2021/11/01 13:25:33;;;;;;;6.20;2.10;;;13.20;72.60;;;;;;5019610;28;20219;-85
2021/11/01 13:38:59;;;;;;;2.87;1.70;;;13.40;70.50;;;;;;5037424;28;20667;-86
2021/11/01 13:41:29;;;;;;;11.07;2.60;;;13.40;69.60;;;;;;5018070;28;20573;-85
2021/11/01 13:44:09;;;;;;;6.93;2.33;;;13.40;70.30;;;;;;5035978;28;20543;-88
2021/11/01 13:46:43;;;;;;;10.00;2.37;;;13.00;70.70;;;;;;5037361;28;20243;-86
2021/11/01 13:49:09;;;;;;;7.97;2.37;;;12.70;73.10;;;;;;5018967;28;20214;-86
2021/11/01 13:51:35;;;;;;;10.83;2.90;;;12.60;73.60;;;;;;5035940;28;20165;-86
2021/11/01 13:54:20;;;;;;;5.60;2.50;;;12.60;72.90;;;;;;5018050;28;20188;-85
2021/11/01 13:56:49;;;;;;;4.23;2.10;;;12.60;73.30;;;;;;5037030;28;20193;-85
2021/11/01 14:16:07;;;;;;;12.33;2.90;;;12.50;73.80;;;;;;5036283;28;20569;-82
2021/11/01 15:28:29;;;;;;;7.93;2.47;;;11.70;74.00;;;;;;5036561;28;20152;-84
2021/11/01 16:19:34;;;;;;;9.67;2.40;;;10.30;78.80;;;;;;5034750;28;20659;-86
2021/11/01 16:22:00;;;;;;;7.43;2.63;;;10.20;79.10;;;;;;5016523;28;20641;-86
2021/11/01 16:24:26;;;;;;;2.47;2.17;;;10.00;79.90;;;;;;5034200;28;20180;-86
2021/11/01 16:26:53;;;;;;;5.23;2.30;;;10.00;80.10;;;;;;5034370;28;20185;-85
2021/11/01 16:29:20;;;;;;;7.17;3.00;;;9.90;80.40;;;;;;5017500;28;20180;-84
2021/11/01 16:34:28;;;;;;;8.27;2.63;;;9.80;80.80;;;;;;5034964;28;20183;-86
2021/11/01 16:39:28;;;;;;;11.50;3.40;;;9.70;81.20;;;;;;5034667;28;20610;-83
2021/11/01 16:41:57;;;;;;;7.57;4.50;;;9.70;81.40;;;;;;5034856;28;20215;-85
2021/11/01 16:44:31;;;;;;;6.27;3.33;;;9.60;81.70;;;;;;5034937;28;20572;-84
2021/11/01 16:46:57;;;;;;;6.87;3.00;;;9.60;81.70;;;;;;5038027;28;20149;-83
2021/11/01 16:49:27;;;;;;;10.60;3.10;;;9.60;81.90;;;;;;5038202;28;20601;-84
2021/11/01 16:51:54;;;;;;;9.57;2.47;;;9.50;82.00;;;;;;5038471;28;20251;-85
2021/11/01 16:54:25;;;;;;;8.90;2.60;;;9.50;82.00;;;;;;5037242;28;20172;-85
2021/11/01 16:57:10;;;;;;;5.33;2.80;;;9.50;82.20;;;;;;5037401;28;20188;-84
2021/11/01 17:05:30;;;;;;;7.77;2.70;;;9.60;82.00;;;;;;5038179;28;20157;-83
2021/11/01 17:24:03;;;;;;;9.87;2.90;;;9.80;80.90;;;;;;5037247;28;20213;-86
2021/11/01 17:29:19;;;;;;;6.03;2.57;;;9.80;80.40;;;;;;5036655;28;20178;-86
2021/11/01 17:37:48;;;;;;;7.73;2.53;;;9.90;79.80;;;;;;5036670;28;20632;-84
2021/11/01 18:38:57;;;;;;;7.17;3.33;;;9.10;82.00;;;;;;5036230;28;20192;-86
2021/11/01 18:52:06;;;;;;;9.37;3.07;;;9.00;82.00;;;;;;5035179;28;20180;-86
2021/11/01 18:54:42;;;;;;;8.93;3.10;;;8.90;82.30;;;;;;5016745;28;20165;-85
2021/11/01 18:57:11;;;;;;;5.47;3.07;;;8.80;82.50;;;;;;5034862;28;20165;-84
2021/11/01 18:59:40;;;;;;;5.97;3.17;;;8.70;82.80;;;;;;5017089;28;20204;-84
2021/11/01 19:02:33;;;;;;;6.43;3.10;;;8.70;82.90;;;;;;5035121;28;20205;-83
2021/11/01 19:05:15;;;;;;;9.03;3.40;;;8.70;83.00;;;;;;5035034;28;20282;-85
2021/11/01 20:08:23;;;;;;;7.10;4.60;;;8.30;83.40;;;;;;5033368;28;20169;-84
2021/11/01 20:13:42;;;;;;;10.77;5.10;;;8.30;83.30;;;;;;5033210;28;20551;-84
2021/11/01 21:25:18;;;;;;;8.73;4.30;;;7.50;85.50;;;;;;5036589;28;20292;-83
2021/11/01 21:27:44;;;;;;;14.27;4.67;;;7.50;85.50;;;;;;5036245;28;20195;-83
2021/11/01 21:30:12;;;;;;;15.13;4.40;;;7.50;85.70;;;;;;5035745;28;20172;-83
2021/11/01 21:32:39;;;;;;;10.50;4.27;;;7.50;85.60;;;;;;5018012;28;20553;-83
2021/11/01 21:35:08;;;;;;;11.05;5.70;;;7.50;85.40;;;;;;5035641;28;20471;-83
2021/11/01 21:37:34;;;;;;;6.03;3.90;;;7.50;85.30;;;;;;5018307;28;20179;-83
2021/11/01 21:40:02;;;;;;;11.13;3.63;;;7.40;85.30;;;;;;5035833;28;20252;-83
2021/11/01 21:42:29;;;;;;;18.37;3.93;;;7.30;85.60;;;;;;5037718;28;20287;-82
2021/11/01 21:44:55;;;;;;;6.77;3.70;;;7.30;85.50;;;;;;5035978;28;20738;-83
2021/11/01 21:47:21;;;;;;;10.33;4.17;;;7.30;85.40;;;;;;5035890;28;20165;-83
2021/11/01 21:49:47;;;;;;;7.63;3.50;;;7.40;85.30;;;;;;5018049;28;20527;-83
2021/11/01 21:52:15;;;;;;;6.87;3.77;;;7.50;85.20;;;;;;5017842;28;20177;-83
2021/11/01 21:57:10;;;;;;;9.47;3.80;;;7.30;85.30;;;;;;5035558;28;20184;-83
2021/11/01 22:21:32;;;;;;;8.97;3.57;;;7.30;85.50;;;;;;5035176;28;20676;-83
2021/11/01 22:42:52;;;;;;;11.80;3.70;;;7.30;85.80;;;;;;5034532;28;20200;-82
2021/11/01 22:56:26;;;;;;;8.17;3.50;;;7.10;85.60;;;;;;5035628;28;20199;-83
2021/11/01 22:58:47;;;;;;;5.67;3.00;;;7.10;85.60;;;;;;5033801;28;20219;-83
2021/11/01 23:01:22;;;;;;;4.63;3.07;;;7.00;85.30;;;;;;5034302;28;20193;-83
2021/11/01 23:31:34;;;;;;;9.90;3.87;;;6.70;86.90;;;;;;5034426;28;20172;-82
2021/11/01 23:34:04;;;;;;;9.77;3.57;;;6.70;86.60;;;;;;5033477;28;20260;-82
2021/11/01 23:36:30;;;;;;;10.43;3.20;;;6.80;86.70;;;;;;5015743;28;20544;-84
2021/11/01 23:38:56;;;;;;;7.13;2.97;;;6.90;86.80;;;;;;5033731;28;20161;-84
2021/11/01 23:41:22;;;;;;;8.50;3.23;;;6.90;86.50;;;;;;5033259;28;20204;-84
2021/11/01 23:43:48;;;;;;;11.43;2.80;;;6.90;86.40;;;;;;5033632;28;20239;-83
2021/11/01 23:46:15;;;;;;;9.27;3.00;;;7.00;86.60;;;;;;5033521;28;20649;-84
2021/11/01 23:48:41;;;;;;;6.07;2.90;;;7.00;86.50;;;;;;5033244;28;20702;-84
2021/11/01 23:51:10;;;;;;;6.27;3.37;;;7.00;86.40;;;;;;5033259;28;20177;-84
2021/11/01 23:53:44;;;;;;;5.53;2.83;;;7.00;86.50;;;;;;5014990;28;20184;-84
2021/11/01 23:56:11;;;;;;;11.50;3.33;;;7.00;86.40;;;;;;5015501;28;20331;-84
2021/11/01 23:58:39;;;;;;;9.03;2.80;;;7.00;86.20;;;;;;5015441;28;20184;-84
